createdAt,value
2018-07-27T00:00:48.466Z,0
2018-07-27T00:01:58.035Z,0
2018-07-27T00:03:07.837Z,0
2018-07-27T00:04:17.646Z,0
2018-07-27T00:05:27.770Z,0
2018-07-27T00:06:36.771Z,0
2018-07-27T00:07:46.901Z,0
2018-07-27T00:08:56.720Z,0
2018-07-27T00:10:06.514Z,0
2018-07-27T00:11:16.603Z,0
2018-07-27T00:12:26.674Z,0
2018-07-27T00:13:36.781Z,0
2018-07-27T00:14:46.300Z,0
2018-07-27T00:15:55.822Z,0
2018-07-27T00:17:05.877Z,0
2018-07-27T00:18:15.676Z,0
2018-07-27T00:19:25.803Z,0
2018-07-27T00:20:35.327Z,0
2018-07-27T00:21:45.111Z,0
2018-07-27T00:22:54.930Z,0
2018-07-27T00:24:04.450Z,0
2018-07-27T00:25:14.571Z,0
2018-07-27T00:26:24.097Z,0
2018-07-27T00:27:33.900Z,0
2018-07-27T00:28:43.960Z,0
2018-07-27T00:29:53.739Z,0
2018-07-27T00:31:03.597Z,0
2018-07-27T00:32:12.859Z,0
2018-07-27T00:33:22.117Z,0
2018-07-27T00:34:31.940Z,0
2018-07-27T00:35:41.206Z,0
2018-07-27T00:36:51.056Z,0
2018-07-27T00:38:01.128Z,0
2018-07-27T00:39:10.929Z,0
2018-07-27T00:40:21.053Z,0
2018-07-27T00:41:31.126Z,0
2018-07-27T00:42:41.253Z,0
2018-07-27T00:43:51.046Z,0
2018-07-27T00:45:00.836Z,0
2018-07-27T00:46:10.635Z,0
2018-07-27T00:47:20.699Z,0
2018-07-27T00:48:30.560Z,0
2018-07-27T00:49:40.675Z,0
2018-07-27T00:50:50.472Z,0
2018-07-27T00:52:00.530Z,0
2018-07-27T00:53:09.796Z,0
2018-07-27T00:54:19.637Z,0
2018-07-27T00:55:29.446Z,0
2018-07-27T00:56:39.233Z,0
2018-07-27T00:57:49.290Z,0
2018-07-27T00:58:59.072Z,0
2018-07-27T01:00:09.345Z,0
2018-07-27T01:01:19.168Z,0
2018-07-27T01:02:28.968Z,0
2018-07-27T01:03:38.767Z,0
2018-07-27T01:04:48.838Z,0
2018-07-27T01:05:58.952Z,0
2018-07-27T01:07:08.494Z,0
2018-07-27T01:08:18.556Z,0
2018-07-27T01:09:28.334Z,0
2018-07-27T01:10:38.406Z,0
2018-07-27T01:11:48.256Z,0
2018-07-27T01:12:58.311Z,0
2018-07-27T01:14:08.386Z,0
2018-07-27T01:15:18.459Z,0
2018-07-27T01:16:28.251Z,0
2018-07-27T01:17:38.385Z,0
2018-07-27T01:18:48.461Z,0
2018-07-27T01:19:58.537Z,0
2018-07-27T01:21:08.618Z,0
2018-07-27T01:22:18.148Z,0
2018-07-27T01:23:28.272Z,0
2018-07-27T01:24:38.323Z,0
2018-07-27T01:25:48.123Z,0
2018-07-27T01:26:57.924Z,0
2018-07-27T01:28:07.716Z,0
2018-07-27T01:29:17.584Z,0
2018-07-27T01:30:27.647Z,0
2018-07-27T01:31:37.438Z,0
2018-07-27T01:32:47.530Z,0
2018-07-27T01:33:57.332Z,4
2018-07-27T01:35:06.920Z,4
2018-07-27T01:36:16.978Z,4
2018-07-27T01:37:26.760Z,4
2018-07-27T01:38:36.849Z,0
2018-07-27T01:39:46.953Z,0
2018-07-27T01:41:01.567Z,0
2018-07-27T01:42:11.655Z,4
2018-07-27T01:43:21.717Z,4
2018-07-27T01:44:30.993Z,4
2018-07-27T01:45:40.522Z,4
2018-07-27T01:46:50.616Z,4
2018-07-27T01:48:00.134Z,4
2018-07-27T01:49:10.215Z,4
2018-07-27T01:50:20.285Z,8
2018-07-27T01:51:30.368Z,4
2018-07-27T01:52:40.293Z,8
2018-07-27T01:53:50.363Z,4
2018-07-27T01:55:00.167Z,8
2018-07-27T01:56:10.244Z,8
2018-07-27T01:57:20.302Z,12
2018-07-27T01:58:30.142Z,12
2018-07-27T01:59:40.209Z,12
2018-07-27T02:00:49.724Z,12
2018-07-27T02:01:59.526Z,16
2018-07-27T02:03:09.351Z,16
2018-07-27T02:04:19.493Z,20
2018-07-27T02:05:29.552Z,20
2018-07-27T02:06:39.626Z,20
2018-07-27T02:07:49.690Z,24
2018-07-27T02:08:59.492Z,28
2018-07-27T02:10:09.077Z,28
2018-07-27T02:11:18.608Z,32
2018-07-27T02:12:28.682Z,36
2018-07-27T02:13:38.760Z,40
2018-07-27T02:14:48.605Z,44
2018-07-27T02:15:58.197Z,44
2018-07-27T02:17:08.274Z,52
2018-07-27T02:18:18.062Z,56
2018-07-27T02:19:27.592Z,60
2018-07-27T02:20:37.650Z,68
2018-07-27T02:21:47.530Z,72
2018-07-27T02:22:57.617Z,80
2018-07-27T02:24:07.412Z,88
2018-07-27T02:25:17.244Z,92
2018-07-27T02:26:27.313Z,100
2018-07-27T02:27:37.447Z,108
2018-07-27T02:28:47.539Z,116
2018-07-27T02:29:57.335Z,124
2018-07-27T02:31:07.446Z,136
2018-07-27T02:32:17.523Z,144
2018-07-27T02:33:27.377Z,152
2018-07-27T02:34:37.464Z,168
2018-07-27T02:35:47.246Z,176
2018-07-27T02:36:57.349Z,188
2018-07-27T02:38:06.892Z,200
2018-07-27T02:39:17.045Z,216
2018-07-27T02:40:26.859Z,228
2018-07-27T02:41:36.662Z,244
2018-07-27T02:42:46.202Z,256
2018-07-27T02:43:56.021Z,272
2018-07-27T02:45:05.599Z,288
2018-07-27T02:46:15.396Z,308
2018-07-27T02:47:25.474Z,324
2018-07-27T02:48:35.023Z,340
2018-07-27T02:49:44.297Z,356
2018-07-27T02:50:53.903Z,376
2018-07-27T02:52:03.456Z,396
2018-07-27T02:53:13.283Z,416
2018-07-27T02:54:23.098Z,436
2018-07-27T02:55:32.618Z,460
2018-07-27T02:56:42.761Z,480
2018-07-27T02:57:52.851Z,500
2018-07-27T02:59:02.907Z,524
2018-07-27T03:03:38.579Z,612
2018-07-27T03:04:48.649Z,636
2018-07-27T03:05:58.498Z,660
2018-07-27T03:07:08.318Z,688
2018-07-27T03:08:18.107Z,712
2018-07-27T03:09:27.973Z,740
2018-07-27T03:10:38.053Z,768
2018-07-27T03:11:48.139Z,796
2018-07-27T03:12:58.212Z,824
2018-07-27T03:14:08.016Z,848
2018-07-27T03:15:18.137Z,872
2018-07-27T03:16:28.225Z,900
2018-07-27T03:17:38.300Z,928
2018-07-27T03:18:48.099Z,952
2018-07-27T03:19:58.166Z,980
2018-07-27T03:21:08.303Z,1008
2018-07-27T03:22:18.098Z,1032
2018-07-27T03:23:28.175Z,1060
2018-07-27T03:24:38.241Z,1088
2018-07-27T03:25:48.325Z,1112
2018-07-27T03:26:58.189Z,1140
2018-07-27T03:28:07.737Z,1168
2018-07-27T03:29:17.831Z,1196
2018-07-27T03:30:27.380Z,1220
2018-07-27T03:31:37.196Z,1244
2018-07-27T03:32:47.038Z,1272
2018-07-27T03:33:57.109Z,1300
2018-07-27T03:35:07.167Z,1328
2018-07-27T03:36:17.234Z,1352
2018-07-27T03:37:27.042Z,1380
2018-07-27T03:38:37.178Z,1408
2018-07-27T03:39:47.265Z,1432
2018-07-27T03:40:57.344Z,1456
2018-07-27T03:42:07.632Z,1484
2018-07-27T03:43:17.562Z,1504
2018-07-27T03:44:30.449Z,1532
2018-07-27T03:45:40.239Z,1560
2018-07-27T03:46:50.034Z,1580
2018-07-27T03:48:00.115Z,1604
2018-07-27T03:49:10.173Z,1628
2018-07-27T03:50:20.278Z,1652
2018-07-27T03:51:30.340Z,1676
2018-07-27T03:52:40.403Z,1700
2018-07-27T03:53:50.184Z,1724
2018-07-27T03:55:00.270Z,1748
2018-07-27T03:56:10.108Z,1768
2018-07-27T03:57:20.175Z,1792
2018-07-27T03:58:30.242Z,1812
2018-07-27T03:59:40.303Z,1832
2018-07-27T04:00:50.374Z,1856
2018-07-27T04:02:00.483Z,1876
2018-07-27T04:03:10.287Z,1896
2018-07-27T04:04:20.080Z,1916
2018-07-27T04:05:29.885Z,1940
2018-07-27T04:06:39.950Z,1956
2018-07-27T04:07:49.524Z,1976
2018-07-27T04:08:59.585Z,1992
2018-07-27T04:10:09.124Z,2012
2018-07-27T04:11:18.911Z,2028
2018-07-27T04:12:28.438Z,2052
2018-07-27T04:13:37.743Z,2068
2018-07-27T04:14:47.879Z,2084
2018-07-27T04:15:58.006Z,2104
2018-07-27T04:17:08.079Z,2120
2018-07-27T04:18:17.895Z,2136
2018-07-27T04:19:27.757Z,2156
2018-07-27T04:20:37.842Z,2172
2018-07-27T04:21:47.909Z,2196
2018-07-27T04:22:57.713Z,2216
2018-07-27T04:24:07.812Z,2228
2018-07-27T04:25:17.917Z,2244
2018-07-27T04:26:28.256Z,2260
2018-07-27T04:27:38.066Z,2272
2018-07-27T04:28:48.133Z,2292
2018-07-27T04:29:58.213Z,2304
2018-07-27T04:31:08.348Z,2320
2018-07-27T04:32:18.434Z,2344
2018-07-27T04:33:28.508Z,2360
2018-07-27T04:34:38.365Z,2372
2018-07-27T04:35:48.759Z,2388
2018-07-27T04:36:58.412Z,2408
2018-07-27T04:38:08.523Z,2420
2018-07-27T04:39:18.329Z,2436
2018-07-27T04:40:28.133Z,2448
2018-07-27T04:41:38.191Z,2464
2018-07-27T04:42:48.355Z,2484
2018-07-27T04:43:58.502Z,2496
2018-07-27T04:45:08.323Z,2508
2018-07-27T04:46:18.118Z,2528
2018-07-27T04:47:28.198Z,2536
2018-07-27T04:48:38.047Z,2556
2018-07-27T04:49:48.119Z,2568
2018-07-27T04:50:58.187Z,2588
2018-07-27T04:52:07.992Z,2592
2018-07-27T04:53:18.047Z,2608
2018-07-27T04:54:27.895Z,2628
2018-07-27T04:55:37.436Z,2632
2018-07-27T04:56:47.646Z,2648
2018-07-27T04:57:57.796Z,2656
2018-07-27T04:59:07.868Z,2668
2018-07-27T05:00:17.717Z,2684
2018-07-27T05:01:27.510Z,2688
2018-07-27T05:02:37.576Z,2704
2018-07-27T05:03:47.655Z,2708
2018-07-27T05:04:57.731Z,2724
2018-07-27T05:06:07.579Z,2732
2018-07-27T05:07:17.383Z,2744
2018-07-27T05:08:27.194Z,2756
2018-07-27T05:09:37.008Z,2764
2018-07-27T05:10:46.534Z,2776
2018-07-27T05:11:57.032Z,2784
2018-07-27T05:13:06.874Z,2796
2018-07-27T05:14:16.952Z,2804
2018-07-27T05:15:27.015Z,2816
2018-07-27T05:16:37.093Z,2824
2018-07-27T05:17:47.280Z,2832
2018-07-27T05:18:57.353Z,2856
2018-07-27T05:20:07.171Z,2860
2018-07-27T05:21:17.251Z,2864
2018-07-27T05:22:27.062Z,2880
2018-07-27T05:23:37.182Z,2888
2018-07-27T05:24:46.926Z,2900
2018-07-27T05:25:56.985Z,2908
2018-07-27T05:27:06.514Z,2912
2018-07-27T05:28:16.318Z,2924
2018-07-27T05:29:31.130Z,2936
2018-07-27T05:30:41.209Z,2940
2018-07-27T05:31:51.010Z,2948
2018-07-27T05:33:00.827Z,2952
2018-07-27T05:34:10.640Z,2960
2018-07-27T05:35:20.779Z,2964
2018-07-27T05:36:30.868Z,2972
2018-07-27T05:37:40.941Z,2988
2018-07-27T05:38:50.751Z,2980
2018-07-27T05:40:00.288Z,2996
2018-07-27T05:41:10.415Z,2996
2018-07-27T05:42:19.694Z,3000
2018-07-27T05:43:29.503Z,3008
2018-07-27T05:44:39.564Z,3016
2018-07-27T05:45:48.815Z,3032
2018-07-27T05:46:59.367Z,3040
2018-07-27T05:48:09.414Z,3036
2018-07-27T05:49:19.228Z,3048
2018-07-27T05:50:29.303Z,3048
2018-07-27T05:51:39.363Z,3052
2018-07-27T05:52:49.736Z,3064
2018-07-27T05:53:59.328Z,3064
2018-07-27T05:55:08.868Z,3080
2018-07-27T05:56:18.676Z,3084
2018-07-27T05:57:28.481Z,3096
2018-07-27T05:58:38.599Z,3104
2018-07-27T05:59:48.674Z,3116
2018-07-27T06:00:58.800Z,3120
2018-07-27T06:02:10.436Z,3120
2018-07-27T06:03:20.673Z,3128
2018-07-27T06:04:30.532Z,3132
2018-07-27T06:05:40.614Z,3136
2018-07-27T06:06:50.416Z,3144
2018-07-27T06:08:00.470Z,3144
2018-07-27T06:09:10.005Z,3148
2018-07-27T06:10:20.139Z,3168
2018-07-27T06:11:30.222Z,3164
2018-07-27T06:12:40.291Z,3160
2018-07-27T06:13:50.379Z,3176
2018-07-27T06:15:00.177Z,3192
2018-07-27T06:16:10.038Z,3188
2018-07-27T06:17:20.103Z,3188
2018-07-27T06:18:29.624Z,3204
2018-07-27T06:19:39.434Z,3204
2018-07-27T06:20:49.244Z,3212
2018-07-27T06:21:59.104Z,3224
2018-07-27T06:23:08.632Z,3224
2018-07-27T06:24:19.029Z,3228
2018-07-27T06:25:29.002Z,3228
2018-07-27T06:26:39.136Z,3232
2018-07-27T06:27:49.003Z,3236
2018-07-27T06:28:58.533Z,3240
2018-07-27T06:30:08.619Z,3248
2018-07-27T06:31:18.408Z,3256
2018-07-27T06:32:28.471Z,3276
2018-07-27T06:33:38.587Z,3272
2018-07-27T06:34:48.675Z,3272
2018-07-27T06:35:58.224Z,3292
2018-07-27T06:37:07.751Z,3292
2018-07-27T06:38:17.557Z,3296
2018-07-27T06:39:27.147Z,3292
2018-07-27T06:40:36.934Z,3300
2018-07-27T06:41:46.999Z,3312
2018-07-27T06:42:56.541Z,3316
2018-07-27T06:44:06.348Z,3324
2018-07-27T06:45:16.157Z,3336
2018-07-27T06:46:26.117Z,3332
2018-07-27T06:47:36.466Z,3344
2018-07-27T06:48:46.062Z,3352
2018-07-27T06:49:55.878Z,3352
2018-07-27T06:51:05.782Z,3356
2018-07-27T06:52:15.855Z,3364
2018-07-27T06:53:25.675Z,3376
2018-07-27T06:54:35.218Z,3384
2018-07-27T06:55:45.016Z,3380
2018-07-27T06:56:55.129Z,3388
2018-07-27T06:58:04.672Z,3400
2018-07-27T06:59:13.926Z,3408
2018-07-27T07:00:23.728Z,3416
2018-07-27T07:01:33.275Z,3424
2018-07-27T07:02:42.856Z,3432
2018-07-27T07:03:52.936Z,3444
2018-07-27T07:05:02.734Z,3452
2018-07-27T07:06:12.523Z,3460
2018-07-27T07:07:22.059Z,3460
2018-07-27T07:08:31.628Z,3456
2018-07-27T07:09:41.436Z,3476
2018-07-27T07:10:51.519Z,3484
2018-07-27T07:12:01.609Z,3484
2018-07-27T07:13:11.697Z,3496
2018-07-27T07:14:21.878Z,3500
2018-07-27T07:15:32.046Z,3504
2018-07-27T07:16:42.132Z,3516
2018-07-27T07:17:52.208Z,3532
2018-07-27T07:19:01.743Z,3536
2018-07-27T07:20:11.605Z,3540
2018-07-27T07:21:21.694Z,3548
2018-07-27T07:22:31.771Z,3548
2018-07-27T07:23:41.841Z,3552
2018-07-27T07:24:51.918Z,3556
2018-07-27T07:26:03.986Z,3568
2018-07-27T07:27:14.253Z,3576
2018-07-27T07:28:24.319Z,3580
2018-07-27T07:29:34.411Z,3588
2018-07-27T07:30:43.937Z,3608
2018-07-27T07:31:53.773Z,3616
2018-07-27T07:33:03.940Z,3620
2018-07-27T07:34:13.816Z,3624
2018-07-27T07:35:23.875Z,3640
2018-07-27T07:36:33.944Z,3644
2018-07-27T07:37:43.521Z,3652
2018-07-27T07:38:53.331Z,3660
2018-07-27T07:40:03.144Z,3664
2018-07-27T07:41:12.404Z,3676
2018-07-27T07:42:21.406Z,3684
2018-07-27T07:43:31.249Z,3692
2018-07-27T07:44:41.054Z,3704
2018-07-27T07:45:50.853Z,3708
2018-07-27T07:47:00.390Z,3724
2018-07-27T07:48:09.923Z,3736
2018-07-27T07:49:20.140Z,3752
2018-07-27T07:50:30.325Z,3760
2018-07-27T07:51:40.437Z,3776
2018-07-27T07:52:50.503Z,3788
2018-07-27T07:54:00.299Z,3796
2018-07-27T07:55:10.147Z,3812
2018-07-27T07:56:20.229Z,3824
2018-07-27T07:57:30.311Z,3836
2018-07-27T07:58:40.702Z,3840
2018-07-27T07:59:51.038Z,3856
2018-07-27T08:01:01.172Z,3856
2018-07-27T08:02:10.426Z,3868
2018-07-27T08:03:20.532Z,3876
2018-07-27T08:04:29.626Z,3892
2018-07-27T08:05:39.197Z,3896
2018-07-27T08:06:49.198Z,3904
2018-07-27T08:07:59.262Z,3916
2018-07-27T08:09:09.338Z,3924
2018-07-27T08:10:19.414Z,3940
2018-07-27T08:11:29.483Z,3948
2018-07-27T08:12:39.593Z,3956
2018-07-27T08:13:49.397Z,3972
2018-07-27T08:14:59.189Z,3980
2018-07-27T08:16:08.982Z,3988
2018-07-27T08:17:18.901Z,3992
2018-07-27T08:18:28.205Z,4008
2018-07-27T08:19:38.021Z,4020
2018-07-27T08:20:47.809Z,4032
2018-07-27T08:21:57.626Z,4048
2018-07-27T08:23:07.160Z,4024
2018-07-27T08:24:16.796Z,4060
2018-07-27T08:25:26.613Z,4080
2018-07-27T08:26:36.163Z,4092
2018-07-27T08:27:45.984Z,4104
2018-07-27T08:28:55.521Z,4120
2018-07-27T08:30:05.652Z,4136
2018-07-27T08:31:15.715Z,4144
2018-07-27T08:32:25.250Z,4152
2018-07-27T08:33:35.329Z,4164
2018-07-27T08:34:45.419Z,4176
2018-07-27T08:35:55.530Z,4176
2018-07-27T08:37:05.664Z,4192
2018-07-27T08:38:14.917Z,4200
2018-07-27T08:39:24.981Z,4208
2018-07-27T08:40:34.528Z,4220
2018-07-27T08:41:44.376Z,4232
2018-07-27T08:42:53.647Z,4252
2018-07-27T08:44:03.190Z,4272
2018-07-27T08:45:13.283Z,4296
2018-07-27T08:46:23.117Z,4312
2018-07-27T08:47:32.704Z,4316
2018-07-27T08:48:42.225Z,4312
2018-07-27T08:49:52.039Z,4328
2018-07-27T08:51:01.579Z,4340
2018-07-27T08:52:11.642Z,4348
2018-07-27T08:53:21.764Z,4360
2018-07-27T08:54:31.310Z,4372
2018-07-27T08:55:40.857Z,4384
2018-07-27T08:56:50.943Z,4396
2018-07-27T08:58:00.745Z,4416
2018-07-27T08:59:10.604Z,4428
2018-07-27T09:00:20.681Z,4432
2018-07-27T09:01:30.227Z,4444
2018-07-27T09:02:40.299Z,4456
2018-07-27T09:03:50.171Z,4472
2018-07-27T09:05:00.046Z,4488
2018-07-27T09:06:09.857Z,4500
2018-07-27T09:07:19.669Z,4512
2018-07-27T09:08:29.757Z,4532
2018-07-27T09:09:39.830Z,4548
2018-07-27T09:10:49.401Z,4564
2018-07-27T09:11:58.929Z,4584
2018-07-27T09:13:08.200Z,4608
2018-07-27T09:14:18.276Z,4616
2018-07-27T09:15:27.546Z,4636
2018-07-27T09:16:37.146Z,4648
2018-07-27T09:17:46.687Z,4660
2018-07-27T09:18:56.826Z,4684
2018-07-27T09:20:06.346Z,4700
2018-07-27T09:21:15.623Z,4716
2018-07-27T09:22:25.765Z,4724
2018-07-27T09:23:35.836Z,4740
2018-07-27T09:24:46.832Z,4764
2018-07-27T09:25:56.888Z,4776
2018-07-27T09:27:06.688Z,4796
2018-07-27T09:28:16.564Z,4812
2018-07-27T09:29:26.109Z,4824
2018-07-27T09:30:35.696Z,4840
2018-07-27T09:31:45.774Z,4852
2018-07-27T09:32:55.845Z,4864
2018-07-27T09:34:05.907Z,4880
2018-07-27T09:35:16.302Z,4908
2018-07-27T09:36:26.173Z,4928
2018-07-27T09:37:36.267Z,4940
2018-07-27T09:38:46.059Z,4928
2018-07-27T09:39:55.916Z,4972
2018-07-27T09:41:06.016Z,4988
2018-07-27T09:42:15.802Z,5004
2018-07-27T09:43:25.338Z,5012
2018-07-27T09:44:35.136Z,5032
2018-07-27T09:45:44.716Z,5040
2018-07-27T09:46:54.802Z,5052
2018-07-27T09:48:04.620Z,5064
2018-07-27T09:49:14.695Z,5084
2018-07-27T09:50:24.769Z,5104
2018-07-27T09:51:35.016Z,5132
2018-07-27T09:52:45.230Z,5148
2018-07-27T09:53:55.337Z,5164
2018-07-27T09:55:05.196Z,5188
2018-07-27T09:56:15.010Z,5216
2018-07-27T09:57:24.995Z,5228
2018-07-27T09:58:34.319Z,5236
2018-07-27T09:59:44.124Z,5244
2018-07-27T10:00:54.190Z,5260
2018-07-27T10:02:03.999Z,5260
2018-07-27T10:03:13.315Z,5280
2018-07-27T10:04:23.120Z,5284
2018-07-27T10:05:33.237Z,5288
2018-07-27T10:06:43.333Z,5304
2018-07-27T10:07:53.164Z,5320
2018-07-27T10:09:03.296Z,5340
2018-07-27T10:10:12.850Z,5368
2018-07-27T10:11:22.928Z,5384
2018-07-27T10:12:33.007Z,5408
2018-07-27T10:13:43.081Z,5444
2018-07-27T10:14:52.933Z,5456
2018-07-27T10:16:02.734Z,5476
2018-07-27T10:17:12.265Z,5500
2018-07-27T10:18:22.102Z,5516
2018-07-27T10:19:32.258Z,5544
2018-07-27T10:20:42.404Z,5568
2018-07-27T10:21:52.209Z,5572
2018-07-27T10:23:02.006Z,5584
2018-07-27T10:24:11.725Z,5596
2018-07-27T10:25:21.644Z,5612
2018-07-27T10:26:31.212Z,5644
2018-07-27T10:27:41.018Z,5668
2018-07-27T10:28:50.284Z,5696
2018-07-27T10:30:00.340Z,5720
2018-07-27T10:31:10.001Z,5720
2018-07-27T10:32:19.973Z,5760
2018-07-27T10:33:29.782Z,5764
2018-07-27T10:34:39.879Z,5772
2018-07-27T10:35:49.695Z,5780
2018-07-27T10:36:59.770Z,5808
2018-07-27T10:38:09.359Z,5820
2018-07-27T10:39:19.494Z,5836
2018-07-27T10:40:29.020Z,5848
2018-07-27T10:41:39.162Z,5880
2018-07-27T10:42:49.226Z,5888
2018-07-27T10:43:59.362Z,5920
2018-07-27T10:45:08.909Z,5948
2018-07-27T10:46:18.711Z,5968
2018-07-27T10:47:28.800Z,6000
2018-07-27T10:48:38.607Z,6016
2018-07-27T10:49:48.465Z,6020
2018-07-27T10:50:58.274Z,6036
2018-07-27T10:52:08.349Z,6056
2018-07-27T10:53:18.148Z,6072
2018-07-27T10:54:27.694Z,6100
2018-07-27T10:55:37.823Z,6116
2018-07-27T10:56:47.629Z,6132
2018-07-27T10:57:57.703Z,6156
2018-07-27T10:59:07.256Z,6176
2018-07-27T11:00:17.345Z,6192
2018-07-27T11:01:26.939Z,6220
2018-07-27T11:02:37.191Z,6228
2018-07-27T11:03:46.989Z,6228
2018-07-27T11:04:56.801Z,6256
2018-07-27T11:06:06.615Z,6276
2018-07-27T11:07:16.747Z,6308
2018-07-27T11:08:26.825Z,6332
2018-07-27T11:09:36.966Z,6372
2018-07-27T11:10:46.792Z,6408
2018-07-27T11:11:56.885Z,6432
2018-07-27T11:13:06.743Z,6460
2018-07-27T11:14:16.837Z,6504
2018-07-27T11:15:27.122Z,6552
2018-07-27T11:16:37.310Z,6596
2018-07-27T11:17:47.044Z,6644
2018-07-27T11:18:56.988Z,6720
2018-07-27T11:20:06.518Z,6792
2018-07-27T11:21:16.658Z,6860
2018-07-27T11:22:26.455Z,6920
2018-07-27T11:23:35.772Z,6972
2018-07-27T11:24:45.626Z,7004
2018-07-27T11:25:55.458Z,7060
2018-07-27T11:27:05.266Z,7084
2018-07-27T11:28:14.552Z,7120
2018-07-27T11:29:24.641Z,7156
2018-07-27T11:30:34.779Z,7248
2018-07-27T11:31:44.857Z,7312
2018-07-27T11:32:54.924Z,7376
2018-07-27T11:34:05.010Z,7464
2018-07-27T11:35:14.824Z,7748
2018-07-27T11:36:24.965Z,8560
2018-07-27T11:37:34.624Z,10456
2018-07-27T11:38:44.686Z,41344
2018-07-27T11:39:54.759Z,80288
2018-07-27T11:41:04.303Z,81600
2018-07-27T11:42:14.676Z,86240
2018-07-27T11:43:24.882Z,87744
2018-07-27T11:44:34.705Z,87872
2018-07-27T11:45:44.504Z,86976
2018-07-27T11:46:54.301Z,85920
2018-07-27T11:48:04.161Z,83072
2018-07-27T11:49:13.971Z,83456
2018-07-27T11:50:23.776Z,82912
2018-07-27T11:51:33.844Z,83296
2018-07-27T11:52:43.655Z,82528
2018-07-27T11:53:53.506Z,81504
2018-07-27T11:55:03.333Z,80768
2018-07-27T11:56:13.404Z,77440
2018-07-27T11:57:23.503Z,83680
2018-07-27T11:58:33.314Z,83168
2018-07-27T11:59:43.453Z,82176
2018-07-27T12:00:53.535Z,84864
2018-07-27T12:02:03.624Z,77696
2018-07-27T12:03:13.727Z,74496
2018-07-27T12:04:23.810Z,75360
2018-07-27T12:05:33.133Z,77952
2018-07-27T12:06:43.235Z,73888
2018-07-27T12:07:53.324Z,73344
2018-07-27T12:09:03.418Z,77664
2018-07-27T12:10:13.250Z,78272
2018-07-27T12:11:23.121Z,75744
2018-07-27T12:12:32.931Z,82272
2018-07-27T12:13:43.106Z,81120
2018-07-27T12:14:54.288Z,79552
2018-07-27T12:16:04.492Z,78656
2018-07-27T12:17:14.360Z,79680
2018-07-27T12:18:24.457Z,75776
2018-07-27T12:19:34.552Z,77344
2018-07-27T12:20:44.869Z,82944
2018-07-27T12:21:55.824Z,80768
2018-07-27T12:23:05.696Z,77664
2018-07-27T12:24:15.517Z,80832
2018-07-27T12:25:25.332Z,80992
2018-07-27T12:26:35.424Z,83264
2018-07-27T12:27:45.246Z,81536
2018-07-27T12:28:55.374Z,81536
2018-07-27T12:30:05.260Z,75648
2018-07-27T12:31:15.368Z,77088
2018-07-27T12:32:25.464Z,77216
2018-07-27T12:33:35.558Z,77344
2018-07-27T12:34:45.153Z,78400
2018-07-27T12:35:55.225Z,81856
2018-07-27T12:37:05.315Z,82144
2018-07-27T12:38:15.426Z,81760
2018-07-27T12:39:25.527Z,79072
2018-07-27T12:40:35.420Z,70112
2018-07-27T12:41:45.237Z,73088
2018-07-27T12:42:55.333Z,78112
2018-07-27T12:44:05.446Z,82432
2018-07-27T12:45:15.548Z,81568
2018-07-27T12:46:25.702Z,80736
2018-07-27T12:47:35.515Z,83456
2018-07-27T12:48:45.340Z,79360
2018-07-27T12:49:55.455Z,76096
2018-07-27T12:51:05.279Z,75968
2018-07-27T12:52:15.167Z,77696
2018-07-27T12:53:24.992Z,79424
2018-07-27T12:54:35.081Z,78208
2018-07-27T12:55:45.168Z,77856
2018-07-27T12:56:55.263Z,79392
2018-07-27T12:58:05.133Z,76864
2018-07-27T12:59:14.704Z,79360
2018-07-27T13:00:24.533Z,79488
2018-07-27T13:01:34.621Z,80224
2018-07-27T13:02:44.727Z,79936
2018-07-27T13:03:54.867Z,77248
2018-07-27T13:05:04.766Z,74592
2018-07-27T13:06:14.980Z,78048
2018-07-27T13:07:24.796Z,78880
2018-07-27T13:08:34.611Z,75904
2018-07-27T13:09:44.745Z,73856
2018-07-27T13:10:55.051Z,76736
2018-07-27T13:12:05.146Z,77632
2018-07-27T13:13:15.152Z,83072
2018-07-27T13:14:25.025Z,18368
2018-07-27T13:15:34.904Z,88576
2018-07-27T13:16:44.736Z,76032
2018-07-27T13:17:54.827Z,15836
2018-07-27T13:19:04.113Z,29600
2018-07-27T13:20:13.940Z,11104
2018-07-27T13:21:23.831Z,10824
2018-07-27T13:22:34.799Z,11400
2018-07-27T13:23:44.918Z,9632
2018-07-27T13:25:01.801Z,10548
2018-07-27T13:26:28.817Z,15376
2018-07-27T13:27:39.040Z,86720
2018-07-27T13:28:49.122Z,87840
2018-07-27T13:29:59.215Z,11944
2018-07-27T13:31:08.775Z,10656
2018-07-27T13:32:18.898Z,9044
2018-07-27T13:33:28.986Z,9196
2018-07-27T13:34:40.224Z,11272
2018-07-27T13:35:50.165Z,12336
2018-07-27T13:37:00.404Z,10936
2018-07-27T13:38:10.021Z,11360
2018-07-27T13:39:19.855Z,91008
2018-07-27T13:40:29.946Z,91776
2018-07-27T13:41:40.041Z,25120
2018-07-27T13:42:49.319Z,84992
2018-07-27T13:43:58.919Z,14208
2018-07-27T13:45:08.741Z,82112
2018-07-27T13:46:18.288Z,78880
2018-07-27T13:47:28.113Z,16176
2018-07-27T13:48:37.390Z,76768
2018-07-27T13:49:47.277Z,85440
2018-07-27T13:50:57.092Z,84960
2018-07-27T13:52:06.907Z,29728
2018-07-27T13:53:16.707Z,71200
2018-07-27T13:54:26.926Z,12520
2018-07-27T13:55:37.247Z,13524
2018-07-27T13:56:47.075Z,11652
2018-07-27T13:57:57.165Z,9688
2018-07-27T13:59:06.987Z,8488
2018-07-27T14:00:17.071Z,8828
2018-07-27T14:01:27.213Z,9920
2018-07-27T14:02:37.039Z,81184
2018-07-27T14:03:46.575Z,10388
2018-07-27T14:04:56.396Z,9724
2018-07-27T14:06:06.213Z,10668
2018-07-27T14:07:16.066Z,78048
2018-07-27T14:08:26.156Z,79776
2018-07-27T14:09:36.226Z,36448
2018-07-27T14:10:45.784Z,12172
2018-07-27T14:11:55.330Z,12428
2018-07-27T14:13:04.932Z,34080
2018-07-27T14:14:15.085Z,11532
2018-07-27T14:15:25.272Z,11212
2018-07-27T14:16:34.816Z,10960
2018-07-27T14:17:44.882Z,9944
2018-07-27T14:18:55.015Z,10064
2018-07-27T14:20:04.567Z,11064
2018-07-27T14:21:14.381Z,11764
2018-07-27T14:22:23.922Z,10292
2018-07-27T14:23:33.731Z,11028
2018-07-27T14:24:43.850Z,12548
2018-07-27T14:25:53.975Z,61536
2018-07-27T14:27:03.528Z,11776
2018-07-27T14:28:13.392Z,9972
2018-07-27T14:29:23.468Z,9688
2018-07-27T14:30:33.059Z,9204
2018-07-27T14:31:43.151Z,8948
2018-07-27T14:32:53.242Z,8408
2018-07-27T14:34:02.782Z,8252
2018-07-27T14:35:12.601Z,8276
2018-07-27T14:36:22.474Z,8356
2018-07-27T14:37:32.291Z,7704
2018-07-27T14:38:42.114Z,7792
2018-07-27T14:39:51.923Z,8480
2018-07-27T14:41:02.037Z,14412
2018-07-27T14:42:11.899Z,11604
2018-07-27T14:43:21.433Z,13328
2018-07-27T14:44:31.250Z,14236
2018-07-27T14:45:41.386Z,12612
2018-07-27T14:46:51.480Z,12252
2018-07-27T14:48:01.336Z,12572
2018-07-27T14:49:11.407Z,12660
2018-07-27T14:50:21.491Z,13020
2018-07-27T14:51:31.329Z,14456
2018-07-27T14:52:41.537Z,21600
2018-07-27T14:53:51.858Z,13816
2018-07-27T14:55:01.118Z,15276
2018-07-27T14:56:10.662Z,13688
2018-07-27T14:57:20.198Z,12340
2018-07-27T14:58:30.001Z,11752
2018-07-27T14:59:39.873Z,11488
2018-07-27T15:00:49.952Z,11316
2018-07-27T15:01:59.496Z,11576
2018-07-27T15:03:09.037Z,11716
2018-07-27T15:04:18.858Z,12140
2018-07-27T15:05:28.987Z,11348
2018-07-27T15:06:38.548Z,10896
2018-07-27T15:07:47.828Z,11004
2018-07-27T15:08:57.651Z,12004
2018-07-27T15:10:07.759Z,14756
2018-07-27T15:11:17.879Z,68576
2018-07-27T15:12:27.969Z,30304
2018-07-27T15:13:36.967Z,39584
2018-07-27T15:14:46.790Z,80928
2018-07-27T15:15:56.856Z,18848
2018-07-27T15:17:06.445Z,85888
2018-07-27T15:18:16.523Z,20256
2018-07-27T15:19:26.322Z,46688
2018-07-27T15:20:35.851Z,16192
2018-07-27T15:21:45.934Z,12380
2018-07-27T15:22:56.076Z,11204
2018-07-27T15:24:06.170Z,10640
2018-07-27T15:25:15.450Z,10336
2018-07-27T15:26:25.554Z,10332
2018-07-27T15:27:35.623Z,10600
2018-07-27T15:28:45.224Z,11424
2018-07-27T15:29:55.300Z,15004
2018-07-27T15:31:04.930Z,77632
2018-07-27T15:32:14.741Z,77664
2018-07-27T15:33:24.290Z,76160
2018-07-27T15:34:34.166Z,77056
2018-07-27T15:35:44.293Z,82720
2018-07-27T15:36:54.127Z,79776
2018-07-27T15:38:03.668Z,74880
2018-07-27T15:39:13.209Z,39584
2018-07-27T15:40:23.068Z,72768
2018-07-27T15:41:32.893Z,38752
2018-07-27T15:42:42.442Z,69056